Time;durP1;ratioP1;P1;durP2;ratioP2;P2;SDS_P1;SDS_P2;PMS_P1;PMS_P2;Temp;Humidity;BMP_temperature;BMP_pressure;BME280_temperature;BME280_humidity;BME280_pressure;Samples;Min_cycle;Max_cycle;Signal;HPM_P1;HPM_P2
2022/10/12 00:00:27;;;;;;;98.10;76.75;;;15.10;99.90;;;;;;5052795;28;20482;-71
2022/10/12 00:02:55;;;;;;;92.88;72.35;;;15.10;99.90;;;;;;5052786;28;20095;-71
2022/10/12 00:05:22;;;;;;;89.80;69.82;;;15.10;99.90;;;;;;5052901;28;20060;-70
2022/10/12 00:07:49;;;;;;;88.07;65.22;;;15.10;99.90;;;;;;5052833;28;20439;-71
2022/10/12 00:10:17;;;;;;;88.53;66.18;;;15.10;99.90;;;;;;5052862;28;20054;-71
2022/10/12 00:12:44;;;;;;;86.13;64.68;;;15.10;99.90;;;;;;5054923;28;20453;-71
2022/10/12 00:15:13;;;;;;;79.50;64.68;;;15.10;99.90;;;;;;5056688;28;20068;-71
2022/10/12 00:17:40;;;;;;;88.07;65.78;;;15.10;99.90;;;;;;5065546;28;20079;-71
2022/10/12 00:20:08;;;;;;;81.97;65.50;;;15.10;99.90;;;;;;5076810;28;20121;-71
2022/10/12 00:22:36;;;;;;;92.85;64.45;;;15.00;99.90;;;;;;5076352;28;20445;-72
2022/10/12 00:25:03;;;;;;;82.25;62.58;;;15.00;99.90;;;;;;5076372;28;20072;-71
2022/10/12 00:27:30;;;;;;;80.53;61.33;;;15.00;99.90;;;;;;5068338;28;20033;-71
2022/10/12 00:29:57;;;;;;;76.40;60.08;;;15.00;99.90;;;;;;5056484;28;20045;-71
2022/10/12 00:32:26;;;;;;;73.55;59.72;;;15.00;99.90;;;;;;5056022;28;20132;-72
2022/10/12 00:34:53;;;;;;;83.78;62.75;;;15.00;99.90;;;;;;5056124;28;20124;-71
2022/10/12 00:37:20;;;;;;;77.78;61.45;;;15.00;99.90;;;;;;5055963;28;20124;-71
2022/10/12 00:39:48;;;;;;;77.95;62.00;;;15.00;99.90;;;;;;5055882;28;20523;-71
2022/10/12 00:42:19;;;;;;;78.80;62.15;;;14.90;99.90;;;;;;5055939;28;20142;-72
2022/10/12 00:44:48;;;;;;;80.88;61.60;;;14.90;99.90;;;;;;5056247;28;20052;-71
2022/10/12 00:47:22;;;;;;;77.57;62.85;;;14.90;99.90;;;;;;5055999;28;20076;-71
2022/10/12 00:49:54;;;;;;;80.68;63.03;;;14.90;99.90;;;;;;5056366;28;20076;-71
2022/10/12 00:52:26;;;;;;;83.82;64.28;;;14.90;99.90;;;;;;5055733;28;20056;-71
2022/10/12 00:54:54;;;;;;;94.70;71.18;;;14.90;99.90;;;;;;5056090;28;20118;-71
2022/10/12 00:57:24;;;;;;;91.45;69.85;;;14.90;99.90;;;;;;5055870;28;20089;-71
2022/10/12 00:59:56;;;;;;;98.93;76.78;;;14.80;99.90;;;;;;5057196;28;20463;-71
2022/10/12 01:02:25;;;;;;;93.63;74.57;;;14.80;99.90;;;;;;5055809;28;20477;-71
2022/10/12 01:04:54;;;;;;;100.97;77.93;;;14.80;99.90;;;;;;5055889;28;20068;-71
2022/10/12 01:07:21;;;;;;;105.10;82.03;;;14.90;99.90;;;;;;5055786;28;20033;-71
2022/10/12 01:09:49;;;;;;;104.68;80.63;;;14.90;99.90;;;;;;5055820;28;20124;-71
2022/10/12 01:12:17;;;;;;;107.13;81.32;;;14.90;99.90;;;;;;5055133;28;20076;-71
2022/10/12 01:14:44;;;;;;;107.15;80.15;;;14.90;99.90;;;;;;5055311;28;20469;-71
2022/10/12 01:17:34;;;;;;;104.43;78.80;;;14.90;99.90;;;;;;5058479;28;20040;-71
2022/10/12 01:20:34;;;;;;;104.25;78.90;;;14.90;99.90;;;;;;5075978;28;20048;-71
2022/10/12 01:23:25;;;;;;;102.10;77.07;;;14.90;99.90;;;;;;5074461;28;20492;-71
2022/10/12 01:26:16;;;;;;;96.05;75.53;;;15.00;99.90;;;;;;5075420;28;20123;-71
2022/10/12 01:28:55;;;;;;;101.38;78.60;;;15.00;99.90;;;;;;5063637;28;20037;-70
2022/10/12 01:31:30;;;;;;;99.25;79.03;;;15.00;99.90;;;;;;5055158;28;20067;-71
2022/10/12 01:34:02;;;;;;;98.72;77.32;;;15.00;99.90;;;;;;5054936;28;20045;-71
2022/10/12 01:36:35;;;;;;;95.80;75.85;;;15.00;99.90;;;;;;5066165;28;20044;-71
2022/10/12 01:39:12;;;;;;;102.30;76.20;;;15.00;99.90;;;;;;5055303;28;20048;-70
2022/10/12 01:41:44;;;;;;;99.82;76.15;;;15.00;99.90;;;;;;5055069;28;20041;-72
2022/10/12 01:44:12;;;;;;;92.90;72.82;;;15.00;99.90;;;;;;5054646;28;20049;-72
2022/10/12 01:46:43;;;;;;;95.78;76.30;;;15.00;99.90;;;;;;5054782;28;20131;-72
2022/10/12 01:49:11;;;;;;;94.05;75.65;;;15.00;99.90;;;;;;5055044;28;20047;-72
2022/10/12 01:51:55;;;;;;;90.88;74.07;;;15.00;99.90;;;;;;5054794;28;20045;-71
2022/10/12 01:54:34;;;;;;;92.38;71.85;;;15.00;99.90;;;;;;5057070;28;20033;-71
2022/10/12 01:57:08;;;;;;;93.47;73.30;;;15.00;99.90;;;;;;5050895;28;20037;-71
2022/10/12 01:59:44;;;;;;;85.82;66.18;;;15.00;99.90;;;;;;5041664;28;20055;-71
2022/10/12 02:02:19;;;;;;;88.05;68.53;;;15.00;99.90;;;;;;5064861;28;20487;-71
2022/10/12 02:04:51;;;;;;;88.37;68.53;;;15.00;99.90;;;;;;5054564;28;20036;-71
2022/10/12 02:07:26;;;;;;;86.05;67.95;;;14.90;99.90;;;;;;5054579;28;20044;-71
2022/10/12 02:09:56;;;;;;;83.70;65.95;;;15.00;99.90;;;;;;5054803;28;20095;-71
2022/10/12 02:12:26;;;;;;;89.85;67.85;;;14.90;99.90;;;;;;5054365;28;20092;-71
2022/10/12 02:14:57;;;;;;;91.88;70.82;;;14.90;99.90;;;;;;5053223;28;20132;-71
2022/10/12 02:17:26;;;;;;;89.05;70.28;;;14.90;99.90;;;;;;5054209;28;20037;-71
2022/10/12 02:19:57;;;;;;;92.13;69.72;;;15.00;99.90;;;;;;5054397;28;20459;-71
2022/10/12 02:22:26;;;;;;;82.20;66.07;;;15.00;99.90;;;;;;5049333;28;20053;-73
2022/10/12 02:24:58;;;;;;;83.35;67.63;;;15.00;99.90;;;;;;5054174;28;20045;-71
2022/10/12 02:27:27;;;;;;;95.20;67.68;;;15.00;99.90;;;;;;5052717;28;20049;-71
2022/10/12 02:29:54;;;;;;;90.13;68.78;;;15.00;99.90;;;;;;5054369;28;20094;-72
2022/10/12 02:32:28;;;;;;;91.53;71.65;;;15.00;99.90;;;;;;5053950;28;20488;-71
2022/10/12 02:35:01;;;;;;;90.82;73.13;;;15.00;99.90;;;;;;5054884;28;20496;-71
2022/10/12 02:37:36;;;;;;;93.45;76.60;;;15.00;99.90;;;;;;5054046;28;20506;-71
2022/10/12 02:40:11;;;;;;;97.03;76.90;;;15.00;99.90;;;;;;5054307;28;20124;-71
2022/10/12 02:42:42;;;;;;;92.90;71.70;;;15.00;99.90;;;;;;5064688;28;20051;-71
2022/10/12 02:45:11;;;;;;;95.30;74.30;;;15.00;99.90;;;;;;5051115;28;20037;-72
2022/10/12 02:47:42;;;;;;;91.75;73.32;;;14.90;99.90;;;;;;5053934;28;20094;-70
2022/10/12 02:50:10;;;;;;;94.05;73.07;;;14.90;99.90;;;;;;5061388;28;20044;-71
2022/10/12 02:52:38;;;;;;;97.22;77.97;;;14.90;99.90;;;;;;5072006;28;20044;-71
2022/10/12 02:55:07;;;;;;;99.63;78.70;;;14.90;99.90;;;;;;5073665;28;20105;-71
2022/10/12 02:57:34;;;;;;;108.57;82.55;;;14.90;99.90;;;;;;5064745;28;20039;-71
2022/10/12 03:00:01;;;;;;;104.38;83.75;;;14.90;99.90;;;;;;5053700;28;20128;-71
2022/10/12 03:02:29;;;;;;;105.75;84.03;;;14.80;99.90;;;;;;5053239;28;20059;-71
2022/10/12 03:04:58;;;;;;;107.03;84.18;;;14.80;99.90;;;;;;5053262;28;20049;-70
2022/10/12 03:07:25;;;;;;;103.50;82.13;;;14.80;99.90;;;;;;5053693;28;20040;-72
2022/10/12 03:09:53;;;;;;;102.53;83.30;;;14.80;99.90;;;;;;5053550;28;20068;-72
2022/10/12 03:12:20;;;;;;;99.15;81.35;;;14.80;99.90;;;;;;5053041;28;20111;-72
2022/10/12 03:14:47;;;;;;;115.28;87.63;;;14.80;99.90;;;;;;5053202;28;20041;-71
2022/10/12 03:17:14;;;;;;;102.57;82.28;;;14.80;99.90;;;;;;5054311;28;20049;-72
2022/10/12 03:19:42;;;;;;;104.63;84.35;;;14.80;99.90;;;;;;5061357;28;20056;-71
2022/10/12 03:22:10;;;;;;;107.22;84.72;;;14.90;99.90;;;;;;5053149;28;20043;-71
2022/10/12 03:24:38;;;;;;;100.47;81.25;;;14.90;99.90;;;;;;5051758;28;20049;-71
2022/10/12 03:27:05;;;;;;;97.80;76.53;;;14.80;99.90;;;;;;5052912;28;20045;-73
2022/10/12 03:29:32;;;;;;;100.07;78.32;;;14.80;99.90;;;;;;5060060;28;20082;-71
2022/10/12 03:31:59;;;;;;;105.18;83.30;;;14.80;99.90;;;;;;5053249;28;20049;-71
2022/10/12 03:34:27;;;;;;;104.30;82.13;;;14.90;99.90;;;;;;5052863;28;20412;-71
2022/10/12 03:36:54;;;;;;;100.32;78.25;;;14.90;99.90;;;;;;5053069;28;20127;-71
2022/10/12 03:39:23;;;;;;;98.95;75.22;;;14.90;99.90;;;;;;5052389;28;20036;-71
2022/10/12 03:41:50;;;;;;;104.28;78.80;;;14.90;99.90;;;;;;5053348;28;20041;-71
2022/10/12 03:44:17;;;;;;;103.57;80.15;;;14.90;99.90;;;;;;5052969;28;20041;-71
2022/10/12 03:46:44;;;;;;;107.68;81.93;;;14.90;99.90;;;;;;5054171;28;20056;-71
2022/10/12 03:49:12;;;;;;;107.35;82.13;;;14.90;99.90;;;;;;5070969;28;20063;-72
2022/10/12 03:51:39;;;;;;;110.85;85.97;;;14.90;99.90;;;;;;5037269;28;20111;-72
2022/10/12 03:54:06;;;;;;;109.22;84.47;;;14.90;99.90;;;;;;5037026;28;20107;-72
2022/10/12 03:56:35;;;;;;;107.35;82.97;;;14.90;99.90;;;;;;5037098;28;20497;-71
2022/10/12 03:59:02;;;;;;;102.57;80.47;;;14.90;99.90;;;;;;5058154;28;20116;-71
2022/10/12 04:01:30;;;;;;;104.22;81.30;;;14.90;99.90;;;;;;5056930;28;20048;-71
2022/10/12 04:03:57;;;;;;;101.30;79.85;;;14.80;99.90;;;;;;5056937;28;20045;-71
2022/10/12 04:06:24;;;;;;;105.90;81.28;;;14.80;99.90;;;;;;5057011;28;20041;-71
2022/10/12 04:08:52;;;;;;;100.78;80.28;;;14.80;99.90;;;;;;5057037;28;20037;-71
2022/10/12 04:11:20;;;;;;;107.65;82.68;;;14.90;99.90;;;;;;5057119;28;20125;-71
2022/10/12 04:13:49;;;;;;;114.63;85.28;;;14.80;99.90;;;;;;5058504;28;20037;-72
2022/10/12 04:16:16;;;;;;;109.47;85.18;;;14.80;99.90;;;;;;5059860;28;20052;-73
2022/10/12 04:18:43;;;;;;;108.75;83.13;;;14.80;99.90;;;;;;5059941;28;20404;-73
2022/10/12 04:21:15;;;;;;;111.25;87.50;;;14.80;99.90;;;;;;5058142;28;20045;-73
2022/10/12 04:23:42;;;;;;;114.90;86.10;;;14.70;99.90;;;;;;5056316;28;20041;-73
2022/10/12 04:26:10;;;;;;;112.53;86.93;;;14.70;99.90;;;;;;5055139;28;20072;-73
2022/10/12 04:28:37;;;;;;;111.30;85.25;;;14.70;99.90;;;;;;5056449;28;20044;-72
2022/10/12 04:31:06;;;;;;;106.50;82.70;;;14.80;99.90;;;;;;5054270;28;20048;-72
2022/10/12 04:33:33;;;;;;;115.60;85.65;;;14.80;99.90;;;;;;5048291;28;20041;-72
2022/10/12 04:36:01;;;;;;;101.35;77.97;;;14.80;99.90;;;;;;5055991;28;20056;-72
2022/10/12 04:38:28;;;;;;;104.03;80.93;;;14.80;99.90;;;;;;5055988;28;20068;-72
2022/10/12 04:40:56;;;;;;;104.35;83.55;;;14.80;99.90;;;;;;5056293;28;20063;-73
2022/10/12 04:43:23;;;;;;;110.05;86.38;;;14.80;99.90;;;;;;5055683;28;20041;-72
2022/10/12 04:45:55;;;;;;;111.40;88.78;;;14.80;99.90;;;;;;5056222;28;20098;-71
2022/10/12 04:48:25;;;;;;;105.18;81.97;;;14.80;99.90;;;;;;5057352;28;20082;-72
2022/10/12 04:50:53;;;;;;;113.72;85.70;;;14.80;99.90;;;;;;5066621;28;20126;-72
2022/10/12 04:53:21;;;;;;;113.97;85.35;;;14.80;99.90;;;;;;5055914;28;20048;-72
2022/10/12 04:55:48;;;;;;;103.13;79.28;;;14.80;99.90;;;;;;5055900;28;20106;-72
2022/10/12 04:58:15;;;;;;;107.93;82.60;;;14.80;99.90;;;;;;5054784;28;20040;-74
2022/10/12 05:00:42;;;;;;;106.50;81.70;;;14.80;99.90;;;;;;5058274;28;20126;-74
2022/10/12 05:03:10;;;;;;;104.70;83.45;;;14.70;99.90;;;;;;5052459;28;20086;-76
2022/10/12 05:05:38;;;;;;;114.25;85.45;;;14.80;99.90;;;;;;5058514;28;20500;-73
2022/10/12 05:08:06;;;;;;;113.60;85.15;;;14.80;99.90;;;;;;5061014;28;20041;-74
2022/10/12 05:10:33;;;;;;;109.78;83.57;;;14.70;99.90;;;;;;5054192;28;20048;-74
2022/10/12 05:13:01;;;;;;;117.35;85.95;;;14.80;99.90;;;;;;5054731;28;20416;-74
2022/10/12 05:15:28;;;;;;;111.82;88.15;;;14.80;99.90;;;;;;5056308;28;20484;-74
2022/10/12 05:17:55;;;;;;;113.50;83.38;;;14.80;99.90;;;;;;5055283;28;20064;-74
2022/10/12 05:20:23;;;;;;;108.10;83.93;;;14.80;99.90;;;;;;5073677;28;20040;-75
2022/10/12 05:22:51;;;;;;;113.65;82.47;;;14.80;99.90;;;;;;5068865;28;20051;-74
2022/10/12 05:25:19;;;;;;;97.60;77.03;;;14.80;99.90;;;;;;5047349;28;20095;-74
2022/10/12 05:27:46;;;;;;;93.75;72.05;;;14.80;99.90;;;;;;5035320;28;20053;-75
2022/10/12 05:30:14;;;;;;;102.35;75.50;;;14.80;99.90;;;;;;5042682;28;20071;-74
2022/10/12 05:32:43;;;;;;;105.28;77.55;;;14.80;99.90;;;;;;5054248;28;20041;-74
2022/10/12 05:35:10;;;;;;;105.88;78.63;;;14.90;99.90;;;;;;5055322;28;20120;-74
2022/10/12 05:37:37;;;;;;;94.78;73.40;;;14.90;99.90;;;;;;5054934;28;20041;-74
2022/10/12 05:40:07;;;;;;;87.65;67.22;;;14.90;99.90;;;;;;5060495;28;20036;-74
2022/10/12 05:42:35;;;;;;;81.22;64.90;;;15.00;99.90;;;;;;5055359;28;20045;-74
2022/10/12 05:45:02;;;;;;;88.22;67.63;;;15.00;99.90;;;;;;5055331;28;20055;-73
2022/10/12 05:47:29;;;;;;;95.65;70.07;;;15.00;99.90;;;;;;5069811;28;20419;-73
2022/10/12 05:49:57;;;;;;;92.75;69.32;;;15.00;99.90;;;;;;5035006;28;20349;-75
2022/10/12 05:52:24;;;;;;;100.25;74.97;;;15.10;99.90;;;;;;5068864;28;20102;-73
2022/10/12 05:54:51;;;;;;;100.68;73.78;;;15.10;99.90;;;;;;5061772;28;20473;-74
2022/10/12 05:57:20;;;;;;;101.97;73.43;;;15.10;99.90;;;;;;5052538;28;20500;-74
2022/10/12 05:59:47;;;;;;;105.32;80.18;;;15.20;99.90;;;;;;5054183;28;20048;-75
2022/10/12 06:02:16;;;;;;;110.80;84.50;;;15.30;99.90;;;;;;5054631;28;20048;-74
2022/10/12 06:04:43;;;;;;;101.55;77.47;;;15.30;99.90;;;;;;5052516;28;20396;-75
2022/10/12 06:07:10;;;;;;;107.32;82.28;;;15.30;99.90;;;;;;5054387;28;20053;-75
2022/10/12 06:09:38;;;;;;;110.45;85.45;;;15.40;99.90;;;;;;5053643;28;20056;-75
2022/10/12 06:12:06;;;;;;;108.60;87.40;;;15.40;99.90;;;;;;5054068;28;20091;-75
2022/10/12 06:14:34;;;;;;;115.45;89.35;;;15.50;99.90;;;;;;5052635;28;20044;-74
2022/10/12 06:17:02;;;;;;;126.95;94.43;;;15.50;99.90;;;;;;5054166;28;20052;-75
2022/10/12 06:19:29;;;;;;;113.35;87.45;;;15.50;99.90;;;;;;5054356;28;20075;-75
2022/10/12 06:21:56;;;;;;;107.53;83.72;;;15.50;99.90;;;;;;5054104;28;20049;-75
2022/10/12 06:24:24;;;;;;;108.70;83.22;;;15.50;99.90;;;;;;5053642;28;20075;-75
2022/10/12 06:26:51;;;;;;;116.63;91.38;;;15.60;99.90;;;;;;5053741;28;20126;-75
2022/10/12 06:29:22;;;;;;;125.05;91.45;;;15.60;99.90;;;;;;5056122;28;20044;-74
2022/10/12 06:31:50;;;;;;;103.65;81.13;;;15.60;99.90;;;;;;5054187;28;20041;-74
2022/10/12 06:34:18;;;;;;;109.60;84.55;;;15.60;99.90;;;;;;5052962;28;20064;-74
2022/10/12 06:36:45;;;;;;;111.32;85.15;;;15.60;99.90;;;;;;5053718;28;20041;-75
2022/10/12 06:39:13;;;;;;;112.32;86.65;;;15.70;99.90;;;;;;5053722;28;20459;-74
2022/10/12 06:41:40;;;;;;;110.50;87.00;;;15.70;99.90;;;;;;5053612;28;20040;-75
2022/10/12 06:44:09;;;;;;;112.20;88.07;;;15.70;99.90;;;;;;5052073;28;20049;-75
2022/10/12 06:46:36;;;;;;;117.38;84.65;;;15.70;99.90;;;;;;5053552;28;20049;-74
2022/10/12 06:49:05;;;;;;;108.50;84.55;;;15.80;99.90;;;;;;5054743;28;20033;-74
2022/10/12 06:51:32;;;;;;;107.07;80.68;;;16.00;99.90;;;;;;5053758;28;20049;-74
2022/10/12 06:53:59;;;;;;;138.75;85.82;;;16.00;99.90;;;;;;5053427;28;20045;-74
2022/10/12 06:56:27;;;;;;;160.77;86.60;;;16.10;99.90;;;;;;5053699;28;20049;-75
2022/10/12 06:58:55;;;;;;;108.40;81.68;;;16.30;99.90;;;;;;5053167;28;20447;-74
2022/10/12 07:01:22;;;;;;;98.85;76.20;;;16.50;99.90;;;;;;5054703;28;20490;-75
2022/10/12 07:03:50;;;;;;;121.07;77.15;;;16.70;99.90;;;;;;5055042;28;20045;-74
2022/10/12 07:06:18;;;;;;;95.28;75.82;;;16.90;99.90;;;;;;5054110;28;20455;-74
2022/10/12 07:08:47;;;;;;;99.65;75.07;;;16.90;99.90;;;;;;5053763;28;20041;-71
2022/10/12 07:11:15;;;;;;;99.35;74.00;;;17.00;99.90;;;;;;5053396;28;20072;-75
2022/10/12 07:13:44;;;;;;;102.82;78.43;;;17.00;99.90;;;;;;5051761;28;20053;-75
2022/10/12 07:16:12;;;;;;;98.05;73.72;;;17.00;99.90;;;;;;5056670;28;20415;-75
2022/10/12 07:18:40;;;;;;;109.60;77.50;;;17.10;99.90;;;;;;5053503;28;20094;-75
2022/10/12 07:21:07;;;;;;;100.70;74.32;;;17.30;99.90;;;;;;5053157;28;20103;-74
2022/10/12 07:23:37;;;;;;;102.85;75.07;;;17.30;99.90;;;;;;5071945;28;20044;-74
2022/10/12 07:26:04;;;;;;;92.50;72.65;;;17.50;99.90;;;;;;5073054;28;20414;-74
2022/10/12 07:28:33;;;;;;;99.25;75.05;;;17.50;99.90;;;;;;5070101;28;20385;-73
2022/10/12 07:31:03;;;;;;;102.78;75.90;;;17.40;99.90;;;;;;5065661;28;20462;-75
2022/10/12 07:33:34;;;;;;;98.47;75.47;;;17.40;99.90;;;;;;5060196;28;20063;-73
2022/10/12 07:36:02;;;;;;;102.28;77.15;;;17.20;99.90;;;;;;5053457;28;20053;-74
2022/10/12 07:38:30;;;;;;;103.35;76.70;;;17.10;99.90;;;;;;5061962;28;20380;-74
2022/10/12 07:41:00;;;;;;;110.10;79.20;;;17.10;99.90;;;;;;5057172;28;20395;-74
2022/10/12 07:43:29;;;;;;;105.05;77.60;;;17.10;99.90;;;;;;5052059;28;20511;-74
2022/10/12 07:45:56;;;;;;;105.15;76.50;;;17.00;99.90;;;;;;5086856;28;20045;-74
2022/10/12 07:48:24;;;;;;;105.30;79.22;;;17.00;99.90;;;;;;5073243;28;20048;-74
2022/10/12 07:50:51;;;;;;;102.72;75.72;;;17.10;99.90;;;;;;5074820;28;20043;-74
2022/10/12 07:53:18;;;;;;;101.15;74.90;;;17.20;99.90;;;;;;5057424;28;20045;-74
2022/10/12 07:55:46;;;;;;;101.50;73.65;;;17.20;99.90;;;;;;5062488;28;20044;-74
2022/10/12 07:58:15;;;;;;;97.57;71.90;;;17.50;99.90;;;;;;5075916;28;20044;-75
2022/10/12 08:00:42;;;;;;;100.85;76.55;;;17.60;99.90;;;;;;5074063;28;20049;-74
2022/10/12 08:03:10;;;;;;;100.85;72.70;;;17.90;99.90;;;;;;5074582;28;20416;-75
2022/10/12 08:05:37;;;;;;;103.72;74.03;;;18.20;99.90;;;;;;5074572;28;20055;-75
2022/10/12 08:08:07;;;;;;;105.68;71.75;;;18.30;99.90;;;;;;5070708;28;20069;-75
2022/10/12 08:10:36;;;;;;;113.70;79.53;;;18.30;99.90;;;;;;5056586;28;20504;-76
2022/10/12 08:13:03;;;;;;;99.82;73.55;;;18.40;99.90;;;;;;5059880;28;20423;-75
2022/10/12 08:15:32;;;;;;;108.88;75.75;;;18.30;99.90;;;;;;5073360;28;20080;-75
2022/10/12 08:17:59;;;;;;;102.65;74.45;;;18.50;99.90;;;;;;5074754;28;20492;-74
2022/10/12 08:20:26;;;;;;;103.47;76.65;;;18.40;99.90;;;;;;5074124;28;20040;-74
2022/10/12 08:22:54;;;;;;;109.75;75.20;;;18.40;99.90;;;;;;5072845;28;20480;-75
2022/10/12 08:25:22;;;;;;;105.45;75.38;;;18.60;99.90;;;;;;5072914;28;20072;-73
2022/10/12 08:27:49;;;;;;;103.93;75.50;;;18.80;99.90;;;;;;5069012;28;20143;-75
2022/10/12 08:30:16;;;;;;;104.25;74.80;;;18.70;99.90;;;;;;5074142;28;20131;-75
2022/10/12 08:32:45;;;;;;;109.38;76.82;;;18.50;99.90;;;;;;5074410;28;20575;-75
2022/10/12 08:35:12;;;;;;;109.07;74.10;;;18.40;99.90;;;;;;5064538;28;20037;-75
2022/10/12 08:37:40;;;;;;;120.70;75.35;;;18.30;99.90;;;;;;5060847;28;20045;-74
2022/10/12 08:40:10;;;;;;;95.80;71.10;;;18.30;99.90;;;;;;5064584;28;20041;-75
2022/10/12 08:42:46;;;;;;;100.55;71.68;;;18.40;99.90;;;;;;5075798;28;20535;-75
2022/10/12 08:45:27;;;;;;;100.15;73.07;;;18.30;99.90;;;;;;5061656;28;20064;-74
2022/10/12 08:48:00;;;;;;;93.38;66.75;;;18.30;99.90;;;;;;5055298;28;20519;-75
2022/10/12 08:50:32;;;;;;;94.10;70.00;;;18.30;99.90;;;;;;5040252;28;20041;-74
2022/10/12 08:53:05;;;;;;;98.85;70.25;;;18.30;99.90;;;;;;5062020;28;20492;-75
2022/10/12 08:55:41;;;;;;;100.20;69.13;;;18.30;99.90;;;;;;5059707;28;20526;-75
2022/10/12 08:58:16;;;;;;;100.68;67.80;;;18.50;99.90;;;;;;5059147;28;20511;-74
2022/10/12 09:00:47;;;;;;;90.53;65.63;;;18.70;99.90;;;;;;5043315;28;20033;-74
2022/10/12 09:03:38;;;;;;;90.75;68.53;;;19.00;99.90;;;;;;5072553;28;20037;-75
2022/10/12 09:06:11;;;;;;;87.88;66.57;;;19.00;99.90;;;;;;5076711;28;20090;-75
2022/10/12 09:08:57;;;;;;;91.63;69.20;;;19.50;99.90;;;;;;5070124;28;20037;-75
2022/10/12 09:11:39;;;;;;;87.43;62.15;;;19.80;99.90;;;;;;5077189;28;20123;-75
2022/10/12 09:14:11;;;;;;;85.05;63.35;;;19.70;99.90;;;;;;5074999;28;20064;-74
2022/10/12 09:16:43;;;;;;;88.38;64.32;;;19.70;99.90;;;;;;5075884;28;20521;-75
2022/10/12 09:19:18;;;;;;;89.43;65.93;;;19.80;99.90;;;;;;5075693;28;20090;-74
2022/10/12 09:21:47;;;;;;;91.55;65.75;;;20.00;99.90;;;;;;5058607;28;20392;-75
2022/10/12 09:24:18;;;;;;;93.57;66.63;;;20.10;99.90;;;;;;5068530;28;20045;-75
2022/10/12 09:26:50;;;;;;;94.03;67.13;;;20.20;99.90;;;;;;5075094;28;20487;-74
2022/10/12 09:29:25;;;;;;;83.00;63.72;;;20.50;99.90;;;;;;5064305;28;20041;-74
2022/10/12 09:32:16;;;;;;;117.40;66.53;;;20.80;99.90;;;;;;5068043;28;20063;-75
2022/10/12 09:34:49;;;;;;;132.32;69.00;;;21.30;99.90;;;;;;5059040;28;20049;-75
2022/10/12 09:37:20;;;;;;;131.52;65.78;;;21.70;99.90;;;;;;5065274;28;20048;-75
2022/10/12 09:39:49;;;;;;;87.75;57.58;;;21.90;99.90;;;;;;5055028;28;20076;-74
2022/10/12 09:42:16;;;;;;;67.63;53.40;;;21.90;99.90;;;;;;5067109;28;20479;-74
2022/10/12 09:44:46;;;;;;;66.47;53.15;;;21.40;99.90;;;;;;5044765;28;20045;-74
2022/10/12 09:47:26;;;;;;;72.70;58.38;;;21.40;99.90;;;;;;5067820;28;20110;-74
2022/10/12 09:49:57;;;;;;;69.47;52.78;;;21.40;99.90;;;;;;5054413;28;20057;-75
2022/10/12 09:52:28;;;;;;;60.55;49.03;;;21.30;99.90;;;;;;5054738;28;20045;-75
2022/10/12 09:54:59;;;;;;;65.47;49.08;;;21.10;99.90;;;;;;5054734;28;20048;-75
2022/10/12 09:57:32;;;;;;;62.50;48.00;;;21.00;99.90;;;;;;5054651;28;20045;-74
2022/10/12 10:00:01;;;;;;;60.92;47.97;;;21.00;99.90;;;;;;5054739;28;20067;-75
2022/10/12 10:02:28;;;;;;;62.60;48.00;;;21.10;99.90;;;;;;5053349;28;20059;-74
2022/10/12 10:05:22;;;;;;;60.63;47.53;;;21.10;99.90;;;;;;5053317;28;20045;-74
2022/10/12 10:07:51;;;;;;;56.72;44.72;;;21.00;99.90;;;;;;5054581;28;20491;-75
2022/10/12 10:10:20;;;;;;;54.47;44.03;;;21.00;99.90;;;;;;5054552;28;20068;-75
2022/10/12 10:12:52;;;;;;;120.43;55.63;;;20.90;99.90;;;;;;5053843;28;20140;-74
2022/10/12 10:15:23;;;;;;;55.55;44.35;;;20.80;99.90;;;;;;5054197;28;20048;-75
2022/10/12 10:17:53;;;;;;;50.70;42.63;;;20.80;99.90;;;;;;5054368;28;20497;-74
2022/10/12 10:20:49;;;;;;;51.33;41.75;;;21.10;99.90;;;;;;5054224;28;20365;-74
2022/10/12 10:23:26;;;;;;;55.88;40.45;;;21.00;99.90;;;;;;5053953;28;20040;-74
2022/10/12 10:26:02;;;;;;;49.50;39.33;;;21.00;99.90;;;;;;5054189;28;20044;-75
2022/10/12 10:28:31;;;;;;;50.80;39.83;;;21.00;99.90;;;;;;5054117;28;20048;-75
2022/10/12 10:31:01;;;;;;;46.72;39.13;;;21.30;99.90;;;;;;5054143;28;20041;-75
2022/10/12 10:33:30;;;;;;;47.00;38.55;;;21.50;99.90;;;;;;5053481;28;20041;-74
2022/10/12 10:36:03;;;;;;;46.28;36.08;;;21.70;99.90;;;;;;5053845;28;20445;-75
2022/10/12 10:38:33;;;;;;;46.08;35.25;;;21.80;99.90;;;;;;5054045;28;20415;-75
2022/10/12 10:41:05;;;;;;;43.65;34.63;;;21.60;99.90;;;;;;5054030;28;20045;-75
2022/10/12 10:43:32;;;;;;;43.33;35.13;;;21.70;99.90;;;;;;5053760;28;20155;-75
2022/10/12 10:46:02;;;;;;;45.10;37.28;;;21.70;99.90;;;;;;5053746;28;20408;-75
2022/10/12 10:48:32;;;;;;;44.83;38.15;;;21.70;99.90;;;;;;5052219;28;20049;-75
2022/10/12 10:51:03;;;;;;;49.47;39.42;;;21.90;99.90;;;;;;5053593;28;20056;-76
2022/10/12 10:53:42;;;;;;;43.67;36.30;;;22.10;99.90;;;;;;5053125;28;20052;-75
2022/10/12 10:56:14;;;;;;;41.08;35.70;;;22.30;99.90;;;;;;5053502;28;20045;-74
2022/10/12 10:58:45;;;;;;;43.28;35.58;;;22.30;99.90;;;;;;5053677;28;20055;-75
2022/10/12 11:01:19;;;;;;;46.28;37.55;;;22.40;99.90;;;;;;5053435;28;20119;-75
2022/10/12 11:03:54;;;;;;;46.65;38.63;;;22.40;99.90;;;;;;5053670;28;20068;-75
2022/10/12 11:06:33;;;;;;;44.22;36.78;;;22.60;99.90;;;;;;5054402;28;20443;-74
2022/10/12 11:09:04;;;;;;;51.03;40.42;;;22.60;99.40;;;;;;5064090;28;20132;-75
2022/10/12 11:11:36;;;;;;;55.38;44.67;;;22.80;99.10;;;;;;5052181;28;20056;-75
2022/10/12 11:14:12;;;;;;;45.45;37.63;;;22.70;98.70;;;;;;5039007;28;20506;-75
2022/10/12 11:16:44;;;;;;;45.45;38.03;;;22.80;98.70;;;;;;5033201;28;20045;-75
2022/10/12 11:19:23;;;;;;;49.40;42.40;;;22.50;99.00;;;;;;5033128;28;20443;-74
2022/10/12 11:21:55;;;;;;;56.85;47.85;;;22.00;99.90;;;;;;5033331;28;20038;-75
2022/10/12 11:24:29;;;;;;;47.60;39.50;;;22.20;99.90;;;;;;5032965;28;20554;-74
2022/10/12 11:27:02;;;;;;;47.33;40.67;;;22.40;99.90;;;;;;5053139;28;20044;-74
2022/10/12 11:29:29;;;;;;;49.42;40.17;;;22.50;99.90;;;;;;5053607;28;20079;-74
2022/10/12 11:32:03;;;;;;;41.10;34.55;;;22.40;99.90;;;;;;5052707;28;20132;-74
2022/10/12 11:34:37;;;;;;;44.60;36.72;;;22.50;99.90;;;;;;5051521;28;20099;-74
2022/10/12 11:37:13;;;;;;;38.72;33.08;;;22.50;99.90;;;;;;5053033;28;20045;-75
2022/10/12 11:39:45;;;;;;;48.55;36.15;;;22.60;99.90;;;;;;5053028;28;20166;-74
2022/10/12 11:42:27;;;;;;;41.83;33.70;;;23.00;99.90;;;;;;5053088;28;20064;-74
2022/10/12 11:44:55;;;;;;;31.75;27.67;;;23.10;99.00;;;;;;5053159;28;20098;-75
2022/10/12 11:47:31;;;;;;;35.58;28.50;;;22.90;97.80;;;;;;5052893;28;20090;-74
2022/10/12 11:50:01;;;;;;;32.10;27.25;;;22.70;98.30;;;;;;5067866;28;20052;-73
2022/10/12 11:52:37;;;;;;;32.75;27.65;;;22.70;98.60;;;;;;5052990;28;20045;-74
2022/10/12 11:55:27;;;;;;;34.65;27.17;;;22.40;99.70;;;;;;5052655;28;20147;-75
2022/10/12 11:57:59;;;;;;;34.28;26.40;;;22.00;99.90;;;;;;5069538;28;20098;-75
2022/10/12 12:00:36;;;;;;;32.33;25.52;;;22.00;99.90;;;;;;5055284;28;20049;-76
2022/10/12 12:03:16;;;;;;;34.55;26.30;;;21.80;99.90;;;;;;5055073;28;20048;-75
2022/10/12 12:05:43;;;;;;;30.63;27.42;;;21.70;99.90;;;;;;5052769;28;20040;-75
2022/10/12 12:08:22;;;;;;;31.63;26.33;;;21.60;99.90;;;;;;5054845;28;20037;-75
2022/10/12 12:11:18;;;;;;;27.80;24.98;;;21.50;99.90;;;;;;5055841;28;20045;-74
2022/10/12 12:13:45;;;;;;;26.58;23.85;;;21.30;99.90;;;;;;5059288;28;20088;-74
2022/10/12 12:16:32;;;;;;;30.00;24.65;;;20.90;99.90;;;;;;5056280;28;20037;-73
2022/10/12 12:19:17;;;;;;;26.35;23.52;;;20.80;99.90;;;;;;5050768;28;20141;-75
2022/10/12 12:22:15;;;;;;;26.33;22.52;;;21.10;99.90;;;;;;5060101;28;20033;-75
2022/10/12 12:24:56;;;;;;;28.67;23.88;;;21.30;99.20;;;;;;5054924;28;20450;-74
2022/10/12 12:27:30;;;;;;;47.97;41.17;;;21.30;99.00;;;;;;5049784;28;20041;-75
2022/10/12 12:29:59;;;;;;;25.05;22.55;;;21.40;99.50;;;;;;5036654;28;20423;-74
2022/10/12 12:32:39;;;;;;;31.42;24.98;;;21.40;99.90;;;;;;5050933;28;20132;-74
2022/10/12 12:35:20;;;;;;;28.00;24.52;;;21.30;99.90;;;;;;5055118;28;20536;-73
2022/10/12 12:37:48;;;;;;;27.88;24.48;;;21.20;99.90;;;;;;5065406;28;20119;-74
2022/10/12 12:40:23;;;;;;;31.75;26.23;;;21.10;99.90;;;;;;5060462;28;20041;-74